Time;durP1;ratioP1;P1;durP2;ratioP2;P2;SDS_P1;SDS_P2;PMS_P1;PMS_P2;Temp;Humidity;BMP_temperature;BMP_pressure;BME280_temperature;BME280_humidity;BME280_pressure;Samples;Min_cycle;Max_cycle;Signal;HPM_P1;HPM_P2
2022/07/04 02:48:43;;;;;;;2.42;0.20;;;21.30;78.30;;;;;;4997262;28;81465;-72
2022/07/04 02:51:08;;;;;;;1.52;0.20;;;21.30;77.10;;;;;;4995141;28;81461;-69
2022/07/04 02:53:34;;;;;;;1.38;0.30;;;21.10;77.50;;;;;;4995114;28;81481;-70
2022/07/04 02:56:03;;;;;;;1.13;0.22;;;21.20;77.50;;;;;;4979937;28;82128;-70
2022/07/04 02:58:30;;;;;;;1.92;0.25;;;21.20;78.60;;;;;;4976126;28;82276;-70
2022/07/04 03:00:56;;;;;;;0.88;0.22;;;21.20;78.40;;;;;;4975884;28;81460;-70
2022/07/04 03:03:21;;;;;;;0.75;0.13;;;21.10;77.90;;;;;;4977682;28;81173;-70
2022/07/04 03:05:47;;;;;;;1.55;0.22;;;21.00;78.40;;;;;;4977318;28;81881;-70
2022/07/04 03:08:13;;;;;;;1.27;0.22;;;21.00;81.00;;;;;;4976496;28;81660;-71
2022/07/04 03:10:38;;;;;;;1.35;0.30;;;21.00;80.80;;;;;;4975361;28;81961;-69
2022/07/04 03:13:04;;;;;;;1.13;0.30;;;21.10;77.90;;;;;;4977572;28;81460;-70
2022/07/04 03:15:30;;;;;;;2.05;0.20;;;21.10;77.60;;;;;;4977579;28;81917;-71
2022/07/04 03:17:55;;;;;;;1.23;0.40;;;21.10;78.20;;;;;;4975250;28;81558;-71
2022/07/04 03:20:21;;;;;;;0.75;0.32;;;21.20;78.80;;;;;;4976301;28;81540;-72
2022/07/04 03:22:47;;;;;;;2.42;0.60;;;21.10;77.10;;;;;;4970839;28;81684;-70
2022/07/04 03:25:12;;;;;;;1.42;0.55;;;21.00;78.40;;;;;;4967557;28;81924;-70
2022/07/04 03:27:38;;;;;;;0.90;0.32;;;21.00;79.90;;;;;;4965802;28;81493;-70
2022/07/04 03:30:04;;;;;;;1.20;0.28;;;21.00;78.70;;;;;;4977331;28;82063;-70
2022/07/04 03:32:30;;;;;;;2.15;0.20;;;21.10;79.30;;;;;;4975326;28;81522;-70
2022/07/04 03:34:56;;;;;;;1.48;0.20;;;21.00;79.00;;;;;;4977243;28;81764;-70
2022/07/04 03:37:21;;;;;;;1.00;0.22;;;20.90;78.80;;;;;;4976392;28;81506;-69
2022/07/04 03:39:47;;;;;;;2.25;0.35;;;20.90;78.90;;;;;;4975547;28;81265;-70
2022/07/04 03:42:13;;;;;;;1.88;0.40;;;20.80;79.60;;;;;;4976646;28;82110;-71
2022/07/04 03:44:38;;;;;;;2.58;0.22;;;21.00;79.00;;;;;;4974384;28;82236;-69
2022/07/04 03:47:04;;;;;;;1.23;0.40;;;21.10;78.30;;;;;;4972217;28;82826;-70
2022/07/04 03:49:30;;;;;;;2.95;0.43;;;21.20;78.10;;;;;;4973958;28;80948;-70
2022/07/04 03:51:55;;;;;;;2.15;0.32;;;21.00;78.50;;;;;;4976171;28;82011;-69
2022/07/04 03:54:21;;;;;;;1.90;0.35;;;21.00;79.40;;;;;;4974712;28;81778;-69
2022/07/04 03:56:47;;;;;;;2.83;0.40;;;21.00;82.90;;;;;;4973809;28;82621;-69
2022/07/04 03:59:13;;;;;;;3.90;0.50;;;20.80;82.00;;;;;;4968306;28;81115;-69
2022/07/04 04:01:38;;;;;;;3.17;0.60;;;20.70;83.90;;;;;;4956838;28;81439;-70
2022/07/04 04:06:48;;;;;;;2.08;0.43;;;20.70;90.10;;;;;;4956176;28;81392;-67
2022/07/04 04:09:18;;;;;;;1.52;0.40;;;20.80;86.90;;;;;;4962757;28;81625;-66
2022/07/04 04:11:45;;;;;;;2.88;0.40;;;20.60;88.40;;;;;;4962217;28;81097;-67
2022/07/04 04:14:12;;;;;;;3.13;0.43;;;20.50;89.60;;;;;;4962883;28;81403;-67
2022/07/04 04:16:38;;;;;;;3.53;0.40;;;20.60;89.10;;;;;;4961929;28;81476;-68
2022/07/04 04:19:04;;;;;;;1.95;0.40;;;20.70;86.90;;;;;;4959997;28;81966;-66
2022/07/04 04:21:29;;;;;;;2.17;0.30;;;20.80;88.10;;;;;;4962158;28;81697;-69
2022/07/04 04:23:55;;;;;;;0.95;0.30;;;20.70;87.60;;;;;;4961761;28;82626;-69
2022/07/04 04:26:21;;;;;;;1.95;0.30;;;20.40;90.10;;;;;;4963045;28;81465;-70
2022/07/04 04:28:47;;;;;;;3.42;0.47;;;20.30;92.90;;;;;;4962849;28;81518;-69
2022/07/04 04:31:14;;;;;;;1.40;0.32;;;20.10;93.50;;;;;;4959438;28;81721;-70
2022/07/04 04:33:40;;;;;;;4.30;0.52;;;20.00;94.70;;;;;;4957857;28;81743;-69
2022/07/04 04:36:06;;;;;;;2.85;0.25;;;19.50;99.60;;;;;;4962820;28;82914;-69
2022/07/04 04:38:32;;;;;;;6.80;0.40;;;19.20;99.90;;;;;;4962299;28;81999;-70
2022/07/04 04:41:00;;;;;;;4.20;0.30;;;18.80;99.90;;;;;;4960587;28;81520;-70
2022/07/04 04:43:26;;;;;;;6.30;0.45;;;18.50;99.90;;;;;;4962140;28;81554;-69
2022/07/04 04:45:52;;;;;;;2.88;0.60;;;18.30;99.90;;;;;;4956461;28;82399;-69
2022/07/04 04:48:17;;;;;;;3.05;0.40;;;18.20;99.90;;;;;;4961447;28;81534;-69
2022/07/04 04:50:43;;;;;;;5.13;0.63;;;18.30;99.90;;;;;;4961920;28;81045;-70
2022/07/04 04:53:09;;;;;;;2.05;0.55;;;18.30;99.90;;;;;;4962312;28;82785;-69
2022/07/04 04:55:35;;;;;;;6.80;1.08;;;18.50;99.90;;;;;;4961513;28;81514;-70
2022/07/04 04:58:00;;;;;;;2.47;0.60;;;18.70;99.90;;;;;;4961092;28;81491;-70
2022/07/04 05:00:26;;;;;;;4.68;1.05;;;18.70;99.90;;;;;;4957221;28;82207;-70
2022/07/04 05:02:52;;;;;;;6.70;1.30;;;18.90;99.90;;;;;;4961304;28;82001;-70
2022/07/04 05:05:18;;;;;;;4.65;0.93;;;19.10;99.90;;;;;;4960162;28;81334;-70
2022/07/04 05:07:44;;;;;;;5.68;0.93;;;19.30;99.90;;;;;;4960327;28;81502;-71
2022/07/04 05:10:10;;;;;;;3.40;0.63;;;19.30;99.90;;;;;;4960358;28;81595;-69
2022/07/04 05:12:36;;;;;;;3.60;0.70;;;19.30;99.90;;;;;;4958700;28;81959;-70
2022/07/04 05:15:02;;;;;;;4.53;0.90;;;19.40;99.90;;;;;;4962070;28;82415;-69
2022/07/04 05:17:28;;;;;;;1.73;0.40;;;19.40;99.90;;;;;;4959762;28;83256;-75
2022/07/04 05:19:53;;;;;;;3.42;0.68;;;19.30;99.90;;;;;;4961924;28;81828;-56
2022/07/04 05:22:19;;;;;;;5.80;1.10;;;19.10;99.90;;;;;;4958263;28;82608;-61
2022/07/04 05:24:45;;;;;;;8.93;0.93;;;19.20;99.90;;;;;;4961373;28;81365;-60
2022/07/04 05:27:10;;;;;;;2.58;0.70;;;19.20;99.90;;;;;;4962158;28;81621;-59
2022/07/04 05:29:37;;;;;;;3.17;0.73;;;19.00;99.90;;;;;;4961158;28;81352;-59
2022/07/04 05:32:04;;;;;;;5.25;1.13;;;19.00;99.90;;;;;;4955570;28;83126;-59
2022/07/04 05:34:29;;;;;;;3.78;0.90;;;19.40;99.90;;;;;;4959803;28;81821;-59
2022/07/04 05:36:55;;;;;;;4.13;0.50;;;19.60;99.90;;;;;;4957238;28;82458;-59
2022/07/04 05:39:22;;;;;;;5.97;0.70;;;19.60;99.90;;;;;;4960704;28;81860;-57
2022/07/04 05:41:47;;;;;;;6.10;0.68;;;19.70;99.90;;;;;;4956128;28;82302;-59
2022/07/04 05:44:13;;;;;;;4.68;0.77;;;19.50;99.90;;;;;;4958858;28;81580;-59
2022/07/04 05:46:39;;;;;;;4.68;0.80;;;19.20;99.90;;;;;;4957276;28;81669;-59
2022/07/04 05:49:04;;;;;;;2.47;0.57;;;19.20;99.90;;;;;;4959259;28;82113;-58
2022/07/04 05:51:30;;;;;;;2.50;0.60;;;19.10;99.90;;;;;;4957646;28;82875;-59
2022/07/04 05:53:56;;;;;;;3.42;0.70;;;19.10;99.90;;;;;;4958698;28;82467;-60
2022/07/04 05:56:23;;;;;;;3.65;0.32;;;19.20;99.90;;;;;;4960246;28;81661;-59
2022/07/04 05:58:48;;;;;;;2.55;0.43;;;19.30;99.90;;;;;;4958786;28;82650;-60
2022/07/04 06:01:14;;;;;;;4.07;0.50;;;19.40;99.90;;;;;;4961728;28;81340;-59
2022/07/04 06:03:40;;;;;;;1.40;0.40;;;19.40;99.90;;;;;;4959068;28;81724;-59
2022/07/04 06:06:06;;;;;;;2.20;0.30;;;19.60;99.90;;;;;;4957462;28;81798;-60
2022/07/04 06:08:32;;;;;;;1.55;0.35;;;19.60;99.90;;;;;;4952323;28;81880;-59
2022/07/04 06:10:58;;;;;;;3.72;0.50;;;19.70;99.90;;;;;;4949013;28;81958;-59
2022/07/04 06:13:24;;;;;;;4.75;0.63;;;19.70;99.90;;;;;;4946028;28;81491;-59
2022/07/04 06:15:50;;;;;;;1.88;0.32;;;19.60;99.90;;;;;;4956915;28;81864;-61
2022/07/04 06:18:16;;;;;;;3.20;0.43;;;19.60;99.90;;;;;;4954843;28;81807;-75
2022/07/04 06:20:42;;;;;;;2.40;0.52;;;19.60;99.90;;;;;;4962215;28;82146;-71
2022/07/04 06:23:07;;;;;;;4.72;0.80;;;19.70;99.90;;;;;;4961866;28;82627;-71
2022/07/04 06:25:34;;;;;;;2.33;0.57;;;19.70;99.90;;;;;;4963379;28;81398;-71
2022/07/04 06:28:00;;;;;;;5.28;0.43;;;19.60;99.90;;;;;;4959184;28;81140;-72
2022/07/04 06:30:27;;;;;;;2.42;0.40;;;19.60;99.90;;;;;;4959798;28;81395;-72
2022/07/04 06:32:55;;;;;;;4.03;0.43;;;19.60;99.90;;;;;;4964530;28;82703;-75
2022/07/04 06:38:09;;;;;;;3.50;0.40;;;19.60;99.90;;;;;;4961276;28;82002;-72
2022/07/04 06:40:36;;;;;;;3.25;0.60;;;19.60;99.90;;;;;;4958927;28;82185;-72
2022/07/04 06:43:02;;;;;;;1.48;0.43;;;19.60;99.90;;;;;;4961285;28;81637;-71
2022/07/04 06:45:28;;;;;;;1.95;0.32;;;19.60;99.90;;;;;;4952414;28;81347;-72
2022/07/04 06:47:53;;;;;;;2.15;0.32;;;19.70;99.90;;;;;;4960770;28;81609;-71
2022/07/04 06:50:19;;;;;;;2.38;0.22;;;19.70;99.90;;;;;;4957215;28;81503;-75
2022/07/04 06:52:45;;;;;;;2.47;0.40;;;19.90;99.90;;;;;;4961417;28;82031;-74
2022/07/04 06:55:11;;;;;;;3.35;0.35;;;20.00;99.90;;;;;;4961980;28;82920;-71
2022/07/04 06:57:37;;;;;;;3.17;0.40;;;20.20;99.90;;;;;;4962211;28;81957;-74
2022/07/04 07:00:05;;;;;;;2.63;0.40;;;20.30;99.90;;;;;;4963435;28;82047;-74
2022/07/04 07:02:30;;;;;;;2.25;0.50;;;20.40;99.90;;;;;;4963657;28;82912;-72
2022/07/04 07:04:57;;;;;;;2.88;0.57;;;20.50;99.90;;;;;;4971787;28;82830;-72
2022/07/04 07:07:24;;;;;;;3.10;0.50;;;20.60;99.90;;;;;;4957531;28;81890;-73
2022/07/04 07:09:51;;;;;;;2.90;0.40;;;20.50;99.90;;;;;;4958089;28;81881;-73
2022/07/04 07:12:17;;;;;;;1.85;0.40;;;20.50;99.90;;;;;;4953893;28;82180;-73
2022/07/04 07:14:42;;;;;;;3.05;0.77;;;20.60;99.90;;;;;;4951235;28;82050;-73
2022/07/04 07:17:08;;;;;;;2.38;0.60;;;20.70;99.90;;;;;;4961559;28;82773;-73
2022/07/04 07:19:34;;;;;;;1.90;0.32;;;20.70;99.90;;;;;;4957344;28;81784;-73
2022/07/04 07:21:59;;;;;;;1.45;0.45;;;20.60;99.90;;;;;;4955752;28;83084;-72
2022/07/04 07:24:29;;;;;;;1.20;0.40;;;20.80;99.90;;;;;;4958001;28;81879;-72
2022/07/04 07:26:56;;;;;;;1.13;0.40;;;21.00;99.90;;;;;;4959921;28;83148;-71
2022/07/04 07:29:22;;;;;;;1.52;0.50;;;21.30;99.90;;;;;;4957563;28;82050;-73
2022/07/04 07:31:47;;;;;;;3.63;0.35;;;21.50;99.10;;;;;;4957609;28;82645;-75
2022/07/04 07:34:13;;;;;;;6.32;0.75;;;21.90;98.60;;;;;;4959800;28;82741;-75
2022/07/04 07:36:39;;;;;;;1.63;0.43;;;22.30;99.50;;;;;;4960173;28;81561;-74
2022/07/04 07:39:05;;;;;;;2.00;0.40;;;22.90;93.90;;;;;;4954434;28;82363;-72
2022/07/04 07:41:30;;;;;;;2.75;0.43;;;25.60;88.50;;;;;;4958258;28;82186;-72
2022/07/04 07:43:56;;;;;;;1.30;0.43;;;27.40;78.00;;;;;;4957129;28;82475;-73
2022/07/04 07:46:22;;;;;;;1.50;0.43;;;27.30;76.30;;;;;;4964210;28;81589;-75
2022/07/04 07:48:47;;;;;;;3.05;0.63;;;28.90;74.70;;;;;;4965590;28;81794;-71
2022/07/04 07:51:15;;;;;;;2.15;0.88;;;29.90;70.80;;;;;;4957122;28;83529;-70
2022/07/04 07:53:41;;;;;;;2.65;0.70;;;29.00;64.50;;;;;;4954051;28;82290;-71
2022/07/04 07:56:07;;;;;;;4.38;0.50;;;27.40;70.10;;;;;;4960763;28;82301;-71
2022/07/04 07:58:33;;;;;;;2.53;0.47;;;26.50;71.50;;;;;;4961366;28;82263;-73
2022/07/04 08:01:01;;;;;;;2.00;0.50;;;25.10;75.30;;;;;;4961308;28;82020;-72
2022/07/04 08:06:13;;;;;;;1.25;0.40;;;23.80;80.60;;;;;;4949247;28;81996;-71
2022/07/04 08:08:40;;;;;;;2.25;0.55;;;23.90;80.80;;;;;;4955659;28;82023;-71
2022/07/04 08:11:06;;;;;;;2.75;0.22;;;24.00;80.10;;;;;;4959630;28;82373;-73
2022/07/04 08:13:31;;;;;;;2.40;0.52;;;24.60;81.20;;;;;;4958548;28;81816;-73
2022/07/04 08:15:58;;;;;;;1.45;0.50;;;24.60;77.50;;;;;;4959209;28;82982;-69
2022/07/04 08:18:24;;;;;;;1.67;0.57;;;24.40;76.70;;;;;;4960353;28;82807;-71
2022/07/04 08:20:50;;;;;;;1.50;0.50;;;24.00;78.50;;;;;;4960276;28;82382;-70
2022/07/04 08:23:16;;;;;;;4.55;0.70;;;24.00;80.10;;;;;;4959976;28;81997;-72
2022/07/04 08:25:42;;;;;;;3.90;0.50;;;24.80;78.60;;;;;;4953493;28;82004;-73
2022/07/04 08:28:09;;;;;;;1.33;0.30;;;26.20;77.20;;;;;;4960490;28;82023;-72
2022/07/04 08:30:34;;;;;;;1.92;0.50;;;27.00;71.20;;;;;;4960022;28;81895;-70
2022/07/04 08:33:00;;;;;;;1.65;0.50;;;27.00;69.90;;;;;;4963037;28;81948;-72
2022/07/04 08:35:26;;;;;;;1.85;0.28;;;26.70;73.70;;;;;;4963541;28;82313;-73
2022/07/04 08:37:55;;;;;;;4.07;0.73;;;26.40;74.10;;;;;;4965340;28;82646;-73
2022/07/04 08:40:25;;;;;;;3.30;0.55;;;26.30;73.60;;;;;;4958915;28;84473;-70
2022/07/04 08:42:51;;;;;;;2.15;0.65;;;25.70;71.90;;;;;;4958542;28;83929;-72
2022/07/04 08:45:24;;;;;;;2.42;0.50;;;25.70;73.90;;;;;;4957259;28;82156;-70
2022/07/04 08:47:54;;;;;;;2.47;0.75;;;26.30;70.80;;;;;;4954622;28;81976;-74
2022/07/04 08:50:26;;;;;;;3.28;0.52;;;26.40;70.30;;;;;;4957803;28;82750;-72
2022/07/04 08:53:13;;;;;;;3.72;0.47;;;26.60;70.80;;;;;;4965344;28;82228;-71
2022/07/04 08:58:31;;;;;;;2.28;0.60;;;28.70;66.00;;;;;;4962773;28;81589;-70
2022/07/04 09:01:00;;;;;;;3.40;0.98;;;29.20;64.50;;;;;;4960288;28;82051;-72
2022/07/04 09:03:27;;;;;;;3.03;0.57;;;29.00;64.20;;;;;;4959687;28;82587;-71
2022/07/04 09:05:53;;;;;;;1.95;0.75;;;29.60;65.90;;;;;;4955665;28;82879;-72
2022/07/04 09:08:19;;;;;;;2.45;0.63;;;30.20;62.80;;;;;;4955860;28;82065;-75
2022/07/04 09:10:45;;;;;;;2.03;0.80;;;30.70;60.50;;;;;;4962529;28;83094;-76
2022/07/04 09:13:12;;;;;;;1.42;0.50;;;31.00;57.50;;;;;;4959913;28;81963;-74
2022/07/04 09:15:39;;;;;;;3.10;1.17;;;30.50;57.90;;;;;;4960884;28;82112;-73
2022/07/04 09:18:05;;;;;;;2.05;0.63;;;30.10;57.50;;;;;;4959932;28;82583;-72
2022/07/04 09:20:32;;;;;;;2.38;0.85;;;29.00;61.00;;;;;;4958540;28;82103;-72
2022/07/04 09:22:59;;;;;;;2.92;0.52;;;28.90;60.80;;;;;;4958699;28;82924;-72
2022/07/04 09:25:25;;;;;;;2.65;1.25;;;29.40;62.30;;;;;;4958147;28;81838;-72
2022/07/04 09:27:53;;;;;;;2.00;0.77;;;30.00;62.00;;;;;;4953433;28;82078;-73
2022/07/04 09:30:29;;;;;;;1.88;0.88;;;30.40;61.10;;;;;;4957398;28;83814;-76
2022/07/04 09:33:00;;;;;;;1.60;1.20;;;30.70;61.20;;;;;;4956855;28;82094;-71
2022/07/04 09:35:27;;;;;;;2.20;0.68;;;30.60;59.50;;;;;;4959993;28;81815;-70
2022/07/04 09:37:55;;;;;;;2.58;0.85;;;30.40;59.40;;;;;;4958230;28;82319;-71
2022/07/04 09:40:20;;;;;;;3.00;1.02;;;30.40;60.90;;;;;;4957326;28;81943;-72
2022/07/04 09:42:46;;;;;;;2.05;0.80;;;30.00;60.70;;;;;;4956872;28;81924;-72
2022/07/04 09:45:12;;;;;;;4.00;0.82;;;29.90;60.50;;;;;;4954044;28;82237;-73
2022/07/04 09:47:40;;;;;;;1.50;0.50;;;29.70;60.90;;;;;;4954569;28;82080;-74
2022/07/04 09:50:18;;;;;;;2.17;0.80;;;29.40;61.60;;;;;;4956609;28;82616;-72
2022/07/04 09:53:07;;;;;;;3.85;0.90;;;29.70;61.00;;;;;;4957176;28;82745;-72
2022/07/04 09:55:39;;;;;;;2.15;0.70;;;29.70;60.30;;;;;;4951250;28;82763;-73
2022/07/04 09:58:07;;;;;;;2.20;0.93;;;29.70;61.30;;;;;;4954796;28;82001;-73
2022/07/04 10:00:37;;;;;;;4.53;0.70;;;29.80;60.10;;;;;;4957518;28;82141;-75
2022/07/04 10:03:19;;;;;;;2.80;0.82;;;28.60;63.30;;;;;;4958417;28;82704;-71
2022/07/04 10:05:46;;;;;;;4.53;0.93;;;29.30;63.10;;;;;;4952531;28;81960;-74
2022/07/04 10:08:12;;;;;;;3.30;1.02;;;30.10;58.70;;;;;;4955929;28;81724;-72
2022/07/04 10:10:39;;;;;;;2.92;1.23;;;31.30;58.60;;;;;;4957845;28;81886;-73
2022/07/04 10:13:12;;;;;;;3.58;1.27;;;32.90;56.40;;;;;;4957252;28;81530;-73
2022/07/04 10:15:41;;;;;;;2.15;1.33;;;33.10;53.80;;;;;;4957491;28;81814;-73
2022/07/04 10:18:08;;;;;;;2.95;1.10;;;32.30;54.80;;;;;;4961612;28;82574;-71
2022/07/04 10:20:34;;;;;;;3.03;0.93;;;32.30;54.90;;;;;;4955972;28;84575;-76
2022/07/04 10:23:00;;;;;;;3.15;1.02;;;32.70;54.60;;;;;;4959872;28;83841;-73
2022/07/04 10:25:26;;;;;;;2.92;1.33;;;32.60;52.10;;;;;;4962675;28;82035;-74
2022/07/04 10:27:52;;;;;;;2.50;1.02;;;32.20;55.70;;;;;;4961442;28;81840;-72
2022/07/04 10:30:33;;;;;;;2.90;1.27;;;31.70;55.20;;;;;;4955112;28;82601;-71
2022/07/04 10:33:02;;;;;;;2.47;0.82;;;30.50;58.30;;;;;;4962202;28;82040;-77
2022/07/04 10:36:03;;;;;;;4.60;1.42;;;30.10;59.20;;;;;;4959272;28;82467;-71
2022/07/04 10:38:30;;;;;;;4.97;1.20;;;29.50;57.80;;;;;;4961369;28;81188;-73
2022/07/04 10:41:04;;;;;;;6.03;0.85;;;28.50;60.90;;;;;;4966432;28;82354;-72
2022/07/04 10:43:42;;;;;;;2.72;0.65;;;27.70;62.20;;;;;;4974255;28;83095;-70
2022/07/04 10:46:37;;;;;;;2.30;0.70;;;27.50;61.50;;;;;;4959089;28;83057;-70
2022/07/04 10:49:15;;;;;;;36.00;4.55;;;28.30;61.20;;;;;;4959681;28;83421;-73
2022/07/04 10:51:47;;;;;;;3.30;0.90;;;28.30;60.50;;;;;;4954583;28;82219;-70
2022/07/04 10:54:32;;;;;;;5.43;0.98;;;28.60;63.60;;;;;;4961169;28;82064;-70
2022/07/04 10:57:16;;;;;;;3.38;0.93;;;29.60;60.80;;;;;;4960947;28;81563;-72
2022/07/04 10:59:52;;;;;;;2.95;1.05;;;30.10;58.50;;;;;;4961588;28;82197;-70
2022/07/04 11:02:18;;;;;;;2.10;0.65;;;29.60;58.70;;;;;;4963315;28;82667;-73
2022/07/04 11:04:47;;;;;;;2.00;0.70;;;29.50;59.60;;;;;;4960712;28;81874;-70
2022/07/04 11:07:18;;;;;;;1.80;0.88;;;29.80;60.60;;;;;;4961839;28;81841;-74
2022/07/04 11:09:44;;;;;;;2.13;0.90;;;29.80;60.00;;;;;;4964901;28;81938;-70
2022/07/04 11:12:11;;;;;;;4.05;1.10;;;29.80;58.30;;;;;;4956803;28;83102;-71
2022/07/04 11:14:45;;;;;;;3.05;1.65;;;29.30;65.10;;;;;;4962099;28;82952;-79
2022/07/04 11:17:19;;;;;;;3.53;1.42;;;28.80;66.10;;;;;;4970231;28;82266;-71
2022/07/04 11:19:46;;;;;;;2.85;0.95;;;28.20;68.30;;;;;;4965812;28;82561;-71
2022/07/04 11:22:22;;;;;;;3.40;1.45;;;27.90;69.00;;;;;;4956466;28;82155;-71
2022/07/04 11:24:48;;;;;;;3.30;1.08;;;27.60;70.80;;;;;;4964741;28;81932;-75
2022/07/04 11:27:14;;;;;;;3.72;1.02;;;27.60;71.00;;;;;;4972457;28;81651;-73
2022/07/04 11:29:52;;;;;;;3.30;1.45;;;27.40;70.50;;;;;;4975468;28;81972;-70
2022/07/04 11:32:19;;;;;;;5.72;1.33;;;27.40;69.20;;;;;;4954033;28;81945;-74
2022/07/04 11:34:46;;;;;;;5.57;1.80;;;27.30;67.60;;;;;;4959902;28;82543;-73
2022/07/04 11:37:12;;;;;;;10.07;1.52;;;27.20;69.70;;;;;;4958108;28;83090;-70
2022/07/04 11:39:38;;;;;;;2.70;1.30;;;27.50;69.00;;;;;;4960637;28;82523;-75
2022/07/04 11:45:07;;;;;;;2.80;1.30;;;28.60;66.30;;;;;;4957482;28;81991;-76
2022/07/04 11:47:40;;;;;;;4.57;1.55;;;28.20;67.40;;;;;;4959279;28;82063;-72
2022/07/04 11:50:11;;;;;;;3.92;1.02;;;28.30;68.20;;;;;;4960582;28;81595;-76
2022/07/04 11:52:37;;;;;;;2.80;1.45;;;28.90;66.50;;;;;;4959668;28;82570;-71
2022/07/04 11:55:08;;;;;;;2.50;0.93;;;29.10;67.30;;;;;;4960611;28;82331;-74
2022/07/04 11:57:39;;;;;;;2.15;1.20;;;29.20;62.80;;;;;;4959732;28;82368;-70
2022/07/04 12:00:08;;;;;;;2.92;1.10;;;29.30;64.00;;;;;;4960674;28;82033;-74
2022/07/04 12:02:34;;;;;;;3.75;1.45;;;28.80;64.20;;;;;;4960248;28;83230;-72
2022/07/04 12:05:03;;;;;;;3.83;1.23;;;29.10;63.60;;;;;;4953824;28;82679;-76
2022/07/04 12:07:32;;;;;;;2.28;1.17;;;29.00;63.50;;;;;;4961064;28;81887;-75
2022/07/04 12:10:16;;;;;;;2.50;1.08;;;28.80;65.80;;;;;;4960104;28;82085;-72
2022/07/04 12:12:57;;;;;;;4.18;1.02;;;28.60;64.60;;;;;;4959998;28;82705;-78
2022/07/04 12:15:24;;;;;;;4.45;1.95;;;28.30;65.70;;;;;;4959177;28;82294;-73
2022/07/04 12:17:52;;;;;;;2.78;1.33;;;28.20;67.60;;;;;;4959328;28;81957;-77
2022/07/04 12:20:18;;;;;;;3.45;1.65;;;28.30;68.60;;;;;;4959871;28;81711;-76
2022/07/04 12:22:53;;;;;;;2.70;1.17;;;28.50;66.20;;;;;;4960325;28;81700;-72
2022/07/04 12:25:37;;;;;;;3.63;1.13;;;28.60;66.80;;;;;;4959742;28;81753;-72
2022/07/04 12:28:04;;;;;;;3.47;1.35;;;28.30;66.30;;;;;;4957536;28;82977;-74
2022/07/04 12:30:33;;;;;;;3.05;1.13;;;27.80;66.90;;;;;;4959885;28;81922;-74
2022/07/04 12:33:04;;;;;;;3.60;1.08;;;27.80;66.70;;;;;;4960127;28;82141;-73
2022/07/04 12:35:39;;;;;;;2.20;1.02;;;27.70;65.70;;;;;;4955852;28;82015;-73
2022/07/04 12:38:07;;;;;;;2.85;1.23;;;27.60;67.50;;;;;;4956929;28;81840;-76
2022/07/04 12:40:34;;;;;;;2.85;1.10;;;28.20;65.40;;;;;;4959179;28;82271;-76
2022/07/04 12:43:00;;;;;;;2.40;0.90;;;28.20;66.40;;;;;;4959673;28;82372;-77
2022/07/04 12:45:41;;;;;;;2.22;0.98;;;28.10;63.90;;;;;;4955311;28;81900;-74
2022/07/04 12:48:24;;;;;;;2.60;1.02;;;27.80;67.00;;;;;;4959734;28;81835;-75
2022/07/04 12:50:50;;;;;;;2.78;0.88;;;28.40;66.50;;;;;;4953661;28;82193;-74
2022/07/04 12:53:17;;;;;;;1.90;0.90;;;28.20;66.40;;;;;;4958614;28;83139;-76
2022/07/04 12:55:44;;;;;;;2.53;0.80;;;28.30;63.80;;;;;;4958394;28;82064;-75
2022/07/04 12:58:10;;;;;;;2.55;0.75;;;28.50;66.80;;;;;;4960300;28;81992;-76
2022/07/04 13:00:37;;;;;;;1.80;0.77;;;28.60;64.20;;;;;;4959265;28;82126;-75
2022/07/04 13:03:03;;;;;;;2.15;0.90;;;27.80;67.80;;;;;;4959295;28;82336;-78
2022/07/04 13:05:29;;;;;;;1.55;0.70;;;27.70;68.80;;;;;;4956389;28;82020;-72
2022/07/04 13:07:55;;;;;;;1.45;0.60;;;27.60;68.60;;;;;;4954664;28;82519;-74
2022/07/04 13:10:21;;;;;;;2.78;0.77;;;27.50;66.80;;;;;;4957731;28;83132;-74
2022/07/04 13:12:46;;;;;;;2.85;0.80;;;27.40;67.90;;;;;;4948218;28;82645;-73
2022/07/04 13:15:12;;;;;;;2.47;0.50;;;27.60;66.60;;;;;;4955376;28;81958;-73
2022/07/04 13:17:38;;;;;;;2.72;0.70;;;27.30;64.80;;;;;;4959092;28;82944;-73
2022/07/04 13:20:04;;;;;;;2.03;0.98;;;27.20;66.30;;;;;;4961928;28;81906;-75
2022/07/04 13:22:30;;;;;;;1.83;0.90;;;27.20;66.90;;;;;;4957509;28;82139;-75
2022/07/04 13:24:56;;;;;;;1.75;0.80;;;27.40;65.70;;;;;;4958216;28;82337;-72
2022/07/04 13:27:22;;;;;;;1.48;0.57;;;27.20;65.00;;;;;;4958133;28;81918;-73
2022/07/04 13:29:47;;;;;;;2.72;0.80;;;27.10;67.80;;;;;;4964695;28;82702;-74
2022/07/04 13:32:13;;;;;;;1.77;0.70;;;27.10;67.50;;;;;;4957122;28;82296;-73
2022/07/04 13:34:39;;;;;;;2.45;0.65;;;27.30;65.00;;;;;;4956821;28;82699;-65
2022/07/04 13:37:05;;;;;;;1.90;0.77;;;27.40;67.60;;;;;;4951149;28;81866;-68
2022/07/04 13:39:32;;;;;;;2.63;0.68;;;27.50;66.20;;;;;;4959157;28;81862;-72
2022/07/04 13:41:58;;;;;;;2.63;0.85;;;27.70;66.70;;;;;;4956566;28;85061;-76
2022/07/04 13:44:23;;;;;;;2.60;0.82;;;27.60;67.70;;;;;;4958350;28;83775;-73
2022/07/04 13:46:49;;;;;;;2.58;0.80;;;27.40;65.00;;;;;;4955831;28;82043;-74
2022/07/04 13:49:15;;;;;;;2.45;1.02;;;27.20;67.90;;;;;;4959098;28;82039;-75
2022/07/04 13:51:41;;;;;;;1.90;0.88;;;27.30;67.50;;;;;;4950613;28;83123;-74
2022/07/04 13:54:08;;;;;;;1.80;0.95;;;27.40;66.90;;;;;;4957176;28;81794;-71
2022/07/04 13:56:34;;;;;;;1.50;0.80;;;27.60;65.20;;;;;;4957454;28;81772;-73
2022/07/04 13:59:01;;;;;;;2.45;0.90;;;27.70;66.80;;;;;;4957850;28;82162;-80
2022/07/04 14:01:27;;;;;;;2.00;0.82;;;27.90;65.90;;;;;;4958385;28;83082;-75
2022/07/04 14:03:53;;;;;;;1.27;0.70;;;28.00;65.10;;;;;;4956602;28;83008;-72
2022/07/04 14:06:19;;;;;;;2.38;0.90;;;27.90;65.80;;;;;;4948367;28;82807;-77
2022/07/04 14:08:45;;;;;;;3.78;0.85;;;28.20;67.40;;;;;;4956360;28;85929;-74
2022/07/04 14:11:11;;;;;;;2.55;0.98;;;28.30;66.90;;;;;;4957801;28;82538;-74
2022/07/04 14:13:39;;;;;;;2.20;0.90;;;28.30;65.70;;;;;;4957368;28;82069;-71
2022/07/04 14:16:06;;;;;;;2.95;1.10;;;28.00;67.40;;;;;;4949441;28;81987;-72
2022/07/04 14:18:32;;;;;;;2.00;0.55;;;28.00;66.90;;;;;;4957268;28;81902;-77
2022/07/04 14:20:58;;;;;;;2.45;0.80;;;27.70;67.20;;;;;;4956425;28;82479;-74
2022/07/04 14:23:42;;;;;;;3.22;0.85;;;27.40;67.50;;;;;;4962041;28;81478;-70
2022/07/04 14:26:16;;;;;;;2.20;0.90;;;27.60;67.80;;;;;;4962729;28;81885;-71
2022/07/04 14:28:46;;;;;;;3.13;1.02;;;27.70;66.30;;;;;;4967289;28;82180;-73
2022/07/04 14:31:12;;;;;;;1.55;0.70;;;27.80;67.00;;;;;;4961067;28;83046;-75
2022/07/04 14:33:38;;;;;;;1.85;0.77;;;27.90;68.10;;;;;;4954893;28;84220;-70
2022/07/04 14:36:06;;;;;;;2.80;0.90;;;27.90;67.60;;;;;;4980803;28;81939;-72
2022/07/04 14:38:32;;;;;;;3.25;0.82;;;27.70;68.00;;;;;;4956176;28;82822;-73
2022/07/04 14:41:09;;;;;;;2.78;0.70;;;27.60;66.80;;;;;;4957575;28;82691;-70
2022/07/04 14:43:36;;;;;;;2.88;0.88;;;27.70;67.20;;;;;;4959785;28;81986;-71
2022/07/04 14:46:02;;;;;;;3.03;0.90;;;28.10;65.10;;;;;;4963497;28;82043;-79
2022/07/04 14:48:28;;;;;;;2.55;0.90;;;28.10;66.20;;;;;;4970617;28;81992;-71
2022/07/04 14:50:53;;;;;;;3.08;1.00;;;28.10;65.70;;;;;;4965758;28;81968;-73
2022/07/04 14:53:20;;;;;;;1.85;0.85;;;28.20;64.80;;;;;;4955061;28;81994;-74
2022/07/04 14:55:46;;;;;;;3.33;0.88;;;28.40;64.20;;;;;;4955820;28;82748;-75
2022/07/04 14:58:13;;;;;;;3.35;0.88;;;28.40;64.50;;;;;;4950736;28;83323;-71
2022/07/04 15:00:39;;;;;;;2.53;0.73;;;28.30;65.30;;;;;;4951949;28;82005;-72
2022/07/04 15:03:04;;;;;;;2.20;0.70;;;28.00;64.80;;;;;;4953302;28;81975;-74
2022/07/04 15:05:30;;;;;;;3.13;0.80;;;28.10;64.00;;;;;;4953233;28;82889;-71
2022/07/04 15:07:56;;;;;;;3.42;0.70;;;27.70;64.60;;;;;;4956585;28;81939;-77
2022/07/04 15:10:23;;;;;;;1.75;0.65;;;27.40;64.90;;;;;;4955700;28;82240;-74
2022/07/04 15:12:49;;;;;;;1.52;0.70;;;27.20;65.70;;;;;;4952852;28;82922;-76
2022/07/04 15:15:15;;;;;;;3.20;0.77;;;27.20;65.20;;;;;;4957153;28;81781;-74
2022/07/04 15:17:41;;;;;;;4.97;0.75;;;27.10;65.90;;;;;;4957646;28;82337;-74
2022/07/04 15:25:36;;;;;;;1.70;0.65;;;26.30;67.40;;;;;;4957239;28;81869;-73
2022/07/04 15:28:02;;;;;;;2.63;1.05;;;26.00;67.70;;;;;;4954409;28;82051;-74
2022/07/04 15:30:28;;;;;;;2.10;0.52;;;25.90;67.30;;;;;;4956097;28;82588;-76
2022/07/04 15:32:54;;;;;;;2.90;0.65;;;25.90;67.80;;;;;;4957259;28;81923;-74
2022/07/04 15:35:19;;;;;;;5.20;0.90;;;25.90;68.80;;;;;;4951353;28;82049;-73
2022/07/04 15:37:45;;;;;;;7.18;0.75;;;25.70;70.70;;;;;;4953682;28;81328;-75
2022/07/04 15:40:11;;;;;;;3.53;0.90;;;25.40;73.30;;;;;;4955795;28;82719;-73
2022/07/04 15:42:37;;;;;;;4.93;0.73;;;25.30;77.20;;;;;;4957836;28;83290;-72
2022/07/04 15:45:02;;;;;;;5.50;0.93;;;25.00;80.80;;;;;;4956762;28;82708;-70
2022/07/04 15:47:29;;;;;;;3.90;1.08;;;24.60;83.50;;;;;;4956394;28;81891;-69
2022/07/04 15:49:54;;;;;;;6.30;1.02;;;24.40;86.10;;;;;;4961368;28;82224;-69
2022/07/04 15:52:22;;;;;;;8.10;1.20;;;23.80;81.10;;;;;;4962183;28;81850;-74
2022/07/04 15:54:48;;;;;;;9.30;1.42;;;22.90;88.20;;;;;;4963018;28;81788;-69
2022/07/04 15:57:14;;;;;;;7.78;0.75;;;22.60;89.50;;;;;;4961066;28;83286;-72